Pickardville, North Dakota
Current Conditions -  °F | °C
As of 5:35 PM on Friday 19 Dec 2014 (Local Time) from K5H4 Reporting Station
Haze Haze  
Wind Chill: 18°   Ceiling: 100
Heat Index: 25°   Visibility: 3mi
Dew Point: 25°   Wind: 6mph
Humidity: 100%   Direction: 320°NW
Pressure: 29.96"   Gusts: NA
Location:  47.4796°N, 100.469°W
Report Text: K5H4 192335Z AUTO 32005KT 3SM BR OVC001 M04/M04 A2996 RMK AO2
Loading
Personal Weather Stations






























Interactive Weather Map New forecast layout! Learn more

10-Day Weather Forecast

Advertisements
Track Severe Weather on mobile